createdAt,value
2022-08-23T00:00:12.981Z,7.32
2022-08-23T00:02:43.505Z,6.63
2022-08-23T00:05:12.469Z,6.78
2022-08-23T00:07:41.428Z,5.25
2022-08-23T00:10:12.447Z,5.65
2022-08-23T00:12:41.216Z,5.80
2022-08-23T00:15:12.066Z,5.55
2022-08-23T00:17:42.369Z,5.20
2022-08-23T00:20:17.329Z,5.30
2022-08-23T00:22:45.718Z,5.53
2022-08-23T00:25:15.457Z,4.93
2022-08-23T00:27:44.225Z,5.03
2022-08-23T00:30:14.960Z,4.97
2022-08-23T00:32:43.876Z,4.90
2022-08-23T00:35:26.253Z,5.32
2022-08-23T00:38:32.072Z,4.53
2022-08-23T00:40:47.436Z,5.32
2022-08-23T00:43:35.918Z,4.82
2022-08-23T00:46:38.016Z,4.97
2022-08-23T00:49:10.131Z,5.13
2022-08-23T00:51:53.280Z,4.75
2022-08-23T00:54:23.437Z,4.95
2022-08-23T00:56:52.866Z,5.43
2022-08-23T00:59:21.046Z,5.10
2022-08-23T01:01:49.350Z,5.07
2022-08-23T01:04:18.514Z,5.28
2022-08-23T01:06:55.818Z,4.63
2022-08-23T01:09:24.432Z,4.90
2022-08-23T01:11:57.726Z,4.88
2022-08-23T01:14:31.027Z,5.30
2022-08-23T01:17:05.671Z,5.07
2022-08-23T01:19:37.378Z,4.82
2022-08-23T01:22:13.633Z,4.85
2022-08-23T01:25:08.191Z,4.95
2022-08-23T01:27:32.226Z,5.40
2022-08-23T01:30:01.582Z,5.20
2022-08-23T01:32:30.046Z,5.13
2022-08-23T01:34:58.066Z,4.90
2022-08-23T01:37:26.151Z,5.10
2022-08-23T01:39:55.537Z,5.03
2022-08-23T01:42:23.542Z,4.80
2022-08-23T01:44:52.049Z,4.97
2022-08-23T01:47:20.491Z,5.05
2022-08-23T01:49:48.591Z,5.00
2022-08-23T01:52:17.365Z,5.43
2022-08-23T01:54:45.617Z,5.15
2022-08-23T01:57:15.401Z,5.07
2022-08-23T01:59:45.551Z,5.15
2022-08-23T02:02:13.556Z,5.63
2022-08-23T02:04:41.561Z,5.50
2022-08-23T02:07:09.732Z,6.15
2022-08-23T02:09:38.084Z,5.30
2022-08-23T02:12:07.554Z,5.55
2022-08-23T02:14:42.170Z,5.00
2022-08-23T02:17:10.446Z,5.30
2022-08-23T02:19:39.602Z,5.20
2022-08-23T02:22:09.449Z,5.47
2022-08-23T02:24:41.954Z,5.30
2022-08-23T02:27:10.238Z,5.70
2022-08-23T02:29:40.509Z,4.88
2022-08-23T02:32:14.025Z,5.55
2022-08-23T02:34:43.895Z,5.18
2022-08-23T02:37:13.914Z,5.13
2022-08-23T02:39:43.661Z,5.50
2022-08-23T02:42:12.635Z,5.53
2022-08-23T02:44:42.266Z,5.63
2022-08-23T02:47:12.070Z,5.53
2022-08-23T02:49:40.113Z,5.85
2022-08-23T02:52:08.599Z,6.13
2022-08-23T02:54:37.782Z,6.13
2022-08-23T02:57:06.471Z,6.10
2022-08-23T02:59:35.490Z,6.28
2022-08-23T03:02:05.065Z,6.05
2022-08-23T03:04:33.155Z,5.72
2022-08-23T03:07:01.358Z,5.53
2022-08-23T03:09:29.529Z,5.57
2022-08-23T03:11:57.555Z,5.78
2022-08-23T03:14:27.615Z,6.28
2022-08-23T03:16:57.445Z,5.97
2022-08-23T03:19:27.838Z,6.10
2022-08-23T03:21:56.023Z,6.32
2022-08-23T03:24:24.263Z,5.65
2022-08-23T03:26:52.457Z,5.45
2022-08-23T03:29:20.734Z,4.90
2022-08-23T03:31:48.750Z,5.70
2022-08-23T03:34:16.956Z,5.13
2022-08-23T03:36:46.546Z,5.55
2022-08-23T03:39:15.059Z,5.80
2022-08-23T03:41:43.511Z,5.60
2022-08-23T03:44:11.561Z,5.78
2022-08-23T03:46:39.676Z,5.55
2022-08-23T03:49:08.213Z,5.30
2022-08-23T03:51:36.531Z,5.47
2022-08-23T03:54:07.457Z,5.75
2022-08-23T03:56:38.838Z,5.15
2022-08-23T03:59:13.166Z,6.10
2022-08-23T04:01:41.496Z,5.68
2022-08-23T04:04:09.577Z,6.30
2022-08-23T04:06:38.581Z,6.68
2022-08-23T04:09:08.020Z,6.57
2022-08-23T04:11:36.144Z,6.78
2022-08-23T04:14:04.639Z,7.80
2022-08-23T04:16:37.527Z,7.35
2022-08-23T04:19:06.126Z,8.40
2022-08-23T04:21:39.310Z,7.28
2022-08-23T04:24:09.021Z,8.50
2022-08-23T04:26:37.242Z,7.35
2022-08-23T04:29:05.968Z,7.78
2022-08-23T04:31:37.149Z,7.43
2022-08-23T04:34:08.479Z,7.78
2022-08-23T04:36:39.811Z,7.78
2022-08-23T04:39:10.318Z,7.60
2022-08-23T04:41:55.579Z,7.78
2022-08-23T04:44:23.785Z,7.97
2022-08-23T04:46:52.173Z,6.97
2022-08-23T04:49:24.499Z,7.70
2022-08-23T04:51:53.837Z,7.43
2022-08-23T04:54:24.627Z,6.93
2022-08-23T04:56:53.078Z,7.55
2022-08-23T04:59:21.354Z,6.93
2022-08-23T05:01:50.375Z,6.97
2022-08-23T05:04:19.190Z,7.63
2022-08-23T05:06:47.222Z,7.70
2022-08-23T05:09:20.313Z,7.10
2022-08-23T05:14:18.234Z,9.98
2022-08-23T05:16:46.387Z,7.25
2022-08-23T05:19:14.738Z,6.75
2022-08-23T05:21:42.873Z,6.25
2022-08-23T05:24:13.533Z,8.02
2022-08-23T05:26:42.819Z,5.32
2022-08-23T05:29:12.362Z,5.28
2022-08-23T05:31:40.516Z,6.38
2022-08-23T05:34:08.670Z,7.55
2022-08-23T05:36:37.829Z,5.22
2022-08-23T05:39:21.168Z,6.20
2022-08-23T05:42:00.866Z,5.43
2022-08-23T05:44:30.639Z,6.85
2022-08-23T05:47:04.638Z,6.35
2022-08-23T05:49:38.672Z,5.95
2022-08-23T05:52:07.506Z,6.90
2022-08-23T05:54:36.662Z,5.88
2022-08-23T05:57:05.427Z,5.50
2022-08-23T05:59:34.950Z,5.45
2022-08-23T06:02:03.180Z,6.13
2022-08-23T06:04:31.496Z,5.70
2022-08-23T06:06:59.559Z,6.43
2022-08-23T06:09:28.076Z,5.80
2022-08-23T06:11:56.111Z,5.88
2022-08-23T06:14:24.244Z,6.10
2022-08-23T06:16:56.083Z,5.43
2022-08-23T06:19:25.073Z,6.10
2022-08-23T06:21:53.813Z,7.40
2022-08-23T06:24:22.067Z,5.70
2022-08-23T06:26:50.246Z,6.28
2022-08-23T06:29:20.626Z,6.25
2022-08-23T06:31:52.023Z,6.05
2022-08-23T06:34:24.136Z,5.97
2022-08-23T06:36:55.329Z,4.90
2022-08-23T06:39:27.322Z,5.28
2022-08-23T06:42:00.850Z,5.38
2022-08-23T06:44:30.002Z,5.60
2022-08-23T06:46:58.347Z,6.28
2022-08-23T06:49:28.831Z,5.80
2022-08-23T06:52:00.156Z,5.75
2022-08-23T06:54:32.866Z,5.70
2022-08-23T06:57:02.382Z,5.35
2022-08-23T06:59:31.299Z,5.40
2022-08-23T07:02:01.700Z,5.80
2022-08-23T07:04:33.202Z,5.88
2022-08-23T07:07:02.576Z,5.57
2022-08-23T07:09:31.606Z,5.03
2022-08-23T07:12:00.296Z,5.30
2022-08-23T07:14:29.452Z,5.68
2022-08-23T07:17:01.363Z,6.22
2022-08-23T07:19:34.161Z,5.05
2022-08-23T07:22:04.422Z,5.57
2022-08-23T07:24:33.766Z,5.22
2022-08-23T07:27:06.531Z,5.10
2022-08-23T07:29:34.904Z,4.80
2022-08-23T07:32:03.100Z,5.40
2022-08-23T07:34:33.238Z,5.45
2022-08-23T07:37:01.725Z,6.28
2022-08-23T07:39:31.841Z,5.68
2022-08-23T07:42:01.319Z,5.65
2022-08-23T07:44:44.754Z,5.22
2022-08-23T07:47:14.576Z,5.90
2022-08-23T07:49:43.999Z,5.85
2022-08-23T07:52:12.170Z,5.25
2022-08-23T07:54:40.740Z,5.13
2022-08-23T07:57:13.872Z,5.57
2022-08-23T07:59:42.094Z,5.10
2022-08-23T08:02:10.380Z,5.80
2022-08-23T08:04:38.969Z,4.85
2022-08-23T08:07:19.240Z,5.30
2022-08-23T08:09:48.913Z,5.10
2022-08-23T08:12:17.677Z,5.00
2022-08-23T08:14:47.054Z,4.72
2022-08-23T08:17:15.175Z,5.40
2022-08-23T08:19:43.205Z,5.20
2022-08-23T08:22:13.240Z,5.45
2022-08-23T08:24:41.778Z,4.93
2022-08-23T08:27:09.845Z,5.60
2022-08-23T08:29:37.985Z,5.18
2022-08-23T08:32:06.332Z,5.53
2022-08-23T08:34:34.417Z,5.25
2022-08-23T08:37:02.643Z,5.53
2022-08-23T08:39:34.064Z,5.30
2022-08-23T08:42:19.254Z,5.38
2022-08-23T08:44:50.998Z,4.78
2022-08-23T08:47:30.832Z,5.13
2022-08-23T08:50:04.011Z,4.70
2022-08-23T08:52:36.898Z,5.65
2022-08-23T08:57:41.200Z,4.80
2022-08-23T09:00:13.715Z,4.90
2022-08-23T09:02:42.930Z,5.43
2022-08-23T09:05:14.813Z,4.80
2022-08-23T09:07:53.510Z,4.68
2022-08-23T09:10:52.159Z,4.97
2022-08-23T09:13:56.126Z,4.82
2022-08-23T09:16:39.521Z,4.95
2022-08-23T09:19:08.136Z,4.82
2022-08-23T09:21:45.180Z,4.38
2022-08-23T09:24:14.428Z,4.90
2022-08-23T09:26:46.000Z,5.45
2022-08-23T09:29:21.106Z,4.80
2022-08-23T09:31:52.758Z,5.07
2022-08-23T09:34:24.182Z,5.30
2022-08-23T09:36:52.500Z,4.55
2022-08-23T09:39:31.222Z,5.10
2022-08-23T09:42:01.742Z,4.75
2022-08-23T09:44:37.450Z,5.25
2022-08-23T09:47:13.042Z,4.75
2022-08-23T09:49:43.786Z,4.70
2022-08-23T09:52:22.147Z,5.20
2022-08-23T09:55:03.176Z,5.00
2022-08-23T09:57:35.717Z,5.07
2022-08-23T10:00:23.432Z,4.72
2022-08-23T10:02:51.640Z,4.75
2022-08-23T10:05:22.064Z,4.93
2022-08-23T10:07:57.078Z,4.88
2022-08-23T10:10:32.937Z,5.22
2022-08-23T10:13:03.472Z,4.57
2022-08-23T10:15:49.463Z,4.95
2022-08-23T10:18:26.303Z,5.40
2022-08-23T10:21:03.094Z,5.50
2022-08-23T10:23:44.909Z,5.90
2022-08-23T10:26:23.183Z,4.65
2022-08-23T10:29:17.508Z,5.30
2022-08-23T10:31:59.182Z,5.75
2022-08-23T10:34:40.977Z,4.80
2022-08-23T10:37:24.219Z,5.50
2022-08-23T10:40:04.009Z,5.00
2022-08-23T10:42:40.372Z,5.07
2022-08-23T10:45:17.331Z,5.05
2022-08-23T10:48:00.135Z,5.45
2022-08-23T10:50:33.547Z,5.10
2022-08-23T10:53:09.526Z,4.65
2022-08-23T10:55:55.156Z,5.72
2022-08-23T10:58:29.240Z,5.38
2022-08-23T11:01:02.013Z,5.10
2022-08-23T11:03:33.235Z,5.40
2022-08-23T11:06:28.877Z,5.20
2022-08-23T11:09:03.710Z,5.47
2022-08-23T11:11:43.345Z,5.55
2022-08-23T11:14:14.275Z,5.40
2022-08-23T11:16:48.750Z,5.68
2022-08-23T11:19:51.677Z,6.22
2022-08-23T11:22:21.183Z,5.60
2022-08-23T11:24:58.957Z,6.05
2022-08-23T11:27:32.362Z,5.43
2022-08-23T11:30:38.993Z,4.97
2022-08-23T11:33:17.871Z,5.43
2022-08-23T11:35:50.278Z,5.95
2022-08-23T11:38:39.169Z,5.15
2022-08-23T11:41:23.625Z,5.38
2022-08-23T11:44:25.886Z,5.18
2022-08-23T11:47:04.786Z,5.50
2022-08-23T11:50:08.768Z,5.35
2022-08-23T11:53:03.761Z,5.60
2022-08-23T11:55:54.625Z,6.05
2022-08-23T11:58:31.986Z,5.03
2022-08-23T12:01:12.150Z,5.40
2022-08-23T12:03:57.011Z,5.43
2022-08-23T12:06:41.572Z,4.80
2022-08-23T12:09:37.305Z,5.22
2022-08-23T12:12:24.388Z,5.60
2022-08-23T12:14:55.930Z,4.93
2022-08-23T12:17:57.064Z,5.10
2022-08-23T12:20:32.737Z,4.97
2022-08-23T12:23:15.337Z,5.00
2022-08-23T12:25:45.166Z,5.35
2022-08-23T12:28:32.705Z,5.53
2022-08-23T12:31:13.427Z,5.65
2022-08-23T12:33:52.417Z,5.18
2022-08-23T12:36:30.322Z,5.63
2022-08-23T12:39:04.969Z,5.45
2022-08-23T12:41:45.549Z,5.40
2022-08-23T12:44:19.603Z,5.22
2022-08-23T12:49:26.202Z,5.47
2022-08-23T12:51:57.094Z,5.63
2022-08-23T12:54:37.803Z,5.50
2022-08-23T12:57:12.019Z,5.13
2022-08-23T12:59:48.587Z,5.68
2022-08-23T13:02:29.483Z,5.65
2022-08-23T13:05:02.982Z,5.65
2022-08-23T13:07:32.446Z,5.43
2022-08-23T13:10:00.744Z,5.88
2022-08-23T13:12:30.431Z,5.75
2022-08-23T13:15:01.785Z,5.78
2022-08-23T13:17:36.964Z,5.35
2022-08-23T13:20:22.129Z,5.95
2022-08-23T13:23:02.641Z,5.55
2022-08-23T13:25:34.416Z,5.95
2022-08-23T13:28:07.463Z,5.32
2022-08-23T13:30:38.237Z,6.13
2022-08-23T13:33:21.142Z,5.72
2022-08-23T13:35:50.695Z,6.43
2022-08-23T13:38:24.715Z,6.00
2022-08-23T13:41:02.184Z,6.20
2022-08-23T13:43:37.394Z,6.57
2022-08-23T13:46:18.125Z,6.00
2022-08-23T13:48:55.802Z,5.60
2022-08-23T13:51:31.533Z,6.40
2022-08-23T13:54:03.356Z,6.65
2022-08-23T13:56:35.743Z,6.00
2022-08-23T13:59:20.906Z,6.07
2022-08-23T14:01:49.406Z,6.20
2022-08-23T14:04:17.907Z,6.10
2022-08-23T14:06:49.047Z,5.93
2022-08-23T14:09:17.770Z,5.03
2022-08-23T14:11:48.305Z,5.72
2022-08-23T14:14:18.874Z,6.93
2022-08-23T14:16:47.045Z,7.82
2022-08-23T14:19:16.769Z,7.82
2022-08-23T14:22:03.530Z,8.82
2022-08-23T14:24:32.171Z,7.13
2022-08-23T14:27:01.662Z,8.10
2022-08-23T14:29:31.685Z,7.80
2022-08-23T14:32:01.115Z,9.18
2022-08-23T14:34:30.558Z,8.02
2022-08-23T14:39:48.724Z,7.32
2022-08-23T14:42:20.635Z,7.07
2022-08-23T14:44:51.151Z,7.25
2022-08-23T14:47:20.266Z,7.25
2022-08-23T14:49:53.279Z,7.72
2022-08-23T14:54:51.038Z,10.27
2022-08-23T14:57:19.935Z,6.43
2022-08-23T14:59:50.323Z,7.03
2022-08-23T15:02:24.249Z,8.38
2022-08-23T15:04:52.826Z,9.30
2022-08-23T15:07:21.439Z,11.20
2022-08-23T15:09:51.741Z,11.63
2022-08-23T15:15:14.751Z,12.07
2022-08-23T15:17:48.712Z,12.05
2022-08-23T15:20:17.565Z,12.73
2022-08-23T15:22:55.476Z,12.48
2022-08-23T15:25:25.362Z,12.52
2022-08-23T15:27:54.243Z,12.82
2022-08-23T15:30:25.205Z,10.48
2022-08-23T15:32:56.667Z,10.40
2022-08-23T15:35:26.800Z,10.07
2022-08-23T15:37:56.511Z,10.32
2022-08-23T15:40:26.199Z,10.88
2022-08-23T15:42:54.496Z,11.25
2022-08-23T15:45:24.430Z,10.88
2022-08-23T15:47:55.073Z,11.35
2022-08-23T15:50:26.869Z,11.27
2022-08-23T15:52:55.899Z,11.20
2022-08-23T15:55:24.309Z,11.68
2022-08-23T15:57:54.608Z,11.07
2022-08-23T16:00:25.156Z,11.27
2022-08-23T16:03:18.944Z,11.48
2022-08-23T16:05:44.619Z,11.27
2022-08-23T16:08:18.683Z,10.98
2022-08-23T16:10:47.234Z,11.60
2022-08-23T16:13:15.657Z,10.90
2022-08-23T16:15:45.502Z,10.68
2022-08-23T16:18:14.086Z,10.60
2022-08-23T16:20:42.735Z,10.52
2022-08-23T16:23:11.156Z,10.63
2022-08-23T16:25:41.551Z,11.02
2022-08-23T16:28:09.990Z,10.68
2022-08-23T16:30:38.257Z,10.63
2022-08-23T16:33:08.257Z,11.23
2022-08-23T16:35:36.372Z,11.27
2022-08-23T16:38:04.925Z,11.30
2022-08-23T16:40:33.518Z,11.82
2022-08-23T16:43:01.933Z,11.85
2022-08-23T16:45:30.213Z,10.68
2022-08-23T16:47:58.342Z,11.02
2022-08-23T16:50:29.169Z,11.55
2022-08-23T16:52:57.298Z,11.40
2022-08-23T16:55:25.653Z,12.30
2022-08-23T16:57:54.093Z,11.93
2022-08-23T17:00:22.388Z,11.57
2022-08-23T17:02:50.851Z,11.15
2022-08-23T17:05:20.991Z,9.25
2022-08-23T17:07:54.176Z,6.82
2022-08-23T17:10:23.628Z,6.75
2022-08-23T17:12:54.299Z,6.80
2022-08-23T17:15:26.589Z,5.50
2022-08-23T17:17:56.232Z,5.60
2022-08-23T17:20:27.604Z,4.88
2022-08-23T17:22:58.599Z,4.88
2022-08-23T17:25:27.590Z,6.30
2022-08-23T17:27:56.974Z,6.07
2022-08-23T17:30:26.669Z,6.22
2022-08-23T17:32:55.271Z,6.28
2022-08-23T17:35:33.952Z,6.95
2022-08-23T17:38:04.878Z,6.55
2022-08-23T17:40:36.801Z,7.00
2022-08-23T17:43:06.381Z,6.15
2022-08-23T17:45:40.750Z,6.85
2022-08-23T17:48:09.072Z,6.75
2022-08-23T17:50:38.219Z,6.93
2022-08-23T17:53:08.614Z,7.55
2022-08-23T17:55:37.575Z,6.75
2022-08-23T17:58:06.688Z,7.00
2022-08-23T18:00:36.450Z,7.00
2022-08-23T18:03:06.066Z,7.75
2022-08-23T18:05:35.597Z,7.18
2022-08-23T18:08:04.057Z,7.15
2022-08-23T18:10:34.026Z,7.53
2022-08-23T18:13:02.481Z,7.03
2022-08-23T18:15:31.481Z,8.05
2022-08-23T18:18:01.121Z,7.40
2022-08-23T18:20:30.546Z,7.43
2022-08-23T18:22:59.746Z,7.25
2022-08-23T18:25:28.250Z,7.13
2022-08-23T18:28:09.906Z,7.25
2022-08-23T18:30:47.025Z,8.00
2022-08-23T18:33:16.108Z,7.57
2022-08-23T18:35:47.586Z,8.05
2022-08-23T18:38:16.504Z,7.70
2022-08-23T18:40:49.494Z,7.28
2022-08-23T18:43:22.493Z,7.90
2022-08-23T18:45:56.487Z,7.25
2022-08-23T18:48:25.409Z,7.75
2022-08-23T18:50:53.740Z,7.43
2022-08-23T18:53:22.360Z,7.47
2022-08-23T18:55:51.070Z,7.30
2022-08-23T18:58:22.913Z,7.55
2022-08-23T19:00:52.828Z,7.95
2022-08-23T19:03:21.366Z,7.35
2022-08-23T19:05:49.702Z,7.60
2022-08-23T19:08:18.287Z,7.28
2022-08-23T19:10:47.497Z,7.80
2022-08-23T19:13:16.474Z,8.02
2022-08-23T19:15:45.888Z,8.10
2022-08-23T19:18:14.695Z,7.20
2022-08-23T19:20:43.606Z,7.63
2022-08-23T19:23:11.631Z,6.93
2022-08-23T19:25:40.967Z,7.50
2022-08-23T19:28:09.078Z,7.63
2022-08-23T19:30:38.694Z,7.70
2022-08-23T19:33:09.921Z,7.53
2022-08-23T19:35:38.022Z,7.45
2022-08-23T19:38:06.422Z,7.22
2022-08-23T19:40:37.908Z,7.25
2022-08-23T19:43:06.892Z,7.00
2022-08-23T19:45:35.072Z,6.78
2022-08-23T19:48:03.788Z,6.70
2022-08-23T19:50:33.943Z,7.38
2022-08-23T19:53:03.427Z,6.95
2022-08-23T19:55:32.941Z,7.82
2022-08-23T19:58:01.588Z,6.88
2022-08-23T20:00:31.706Z,6.18
2022-08-23T20:02:59.951Z,6.68
2022-08-23T20:05:28.847Z,6.97
2022-08-23T20:07:58.447Z,8.68
2022-08-23T20:10:26.667Z,7.55
2022-08-23T20:12:54.989Z,9.18
2022-08-23T20:15:23.400Z,8.77
2022-08-23T20:17:52.439Z,9.13
2022-08-23T20:20:20.631Z,9.15
2022-08-23T20:23:06.505Z,9.63
2022-08-23T20:25:36.818Z,9.45
2022-08-23T20:28:08.478Z,8.60
2022-08-23T20:30:37.679Z,9.00
2022-08-23T20:33:06.015Z,9.80
2022-08-23T20:35:34.294Z,9.27
2022-08-23T20:38:04.597Z,9.80
2022-08-23T20:40:33.021Z,10.13
2022-08-23T20:43:02.956Z,9.63
2022-08-23T20:45:31.446Z,10.52
2022-08-23T20:47:59.694Z,9.38
2022-08-23T20:50:27.836Z,9.65
2022-08-23T20:52:56.621Z,9.95
2022-08-23T20:55:25.747Z,9.15
2022-08-23T20:57:54.358Z,9.82
2022-08-23T21:00:23.971Z,9.57
2022-08-23T21:02:52.270Z,9.50
2022-08-23T21:05:20.645Z,10.18
2022-08-23T21:07:49.178Z,9.27
2022-08-23T21:10:17.687Z,9.45
2022-08-23T21:12:45.782Z,9.68
2022-08-23T21:15:13.891Z,9.85
2022-08-23T21:17:43.427Z,9.60
2022-08-23T21:20:15.901Z,10.05
2022-08-23T21:22:44.401Z,10.70
2022-08-23T21:25:12.988Z,10.00
2022-08-23T21:27:41.515Z,10.68
2022-08-23T21:30:11.076Z,10.05
2022-08-23T21:32:39.191Z,9.75
2022-08-23T21:35:10.057Z,10.38
2022-08-23T21:37:38.436Z,9.68
2022-08-23T21:40:07.773Z,10.90
2022-08-23T21:42:36.173Z,10.50
2022-08-23T21:45:04.530Z,10.00
2022-08-23T21:47:32.814Z,10.27
2022-08-23T21:50:00.938Z,9.57
2022-08-23T21:52:30.746Z,9.75
2022-08-23T21:54:59.198Z,10.38
2022-08-23T21:57:27.809Z,10.18
2022-08-23T21:59:55.974Z,10.48
2022-08-23T22:02:24.206Z,11.02
2022-08-23T22:04:52.599Z,10.90
2022-08-23T22:07:21.061Z,11.65
2022-08-23T22:09:51.850Z,11.00
2022-08-23T22:12:24.485Z,11.70
2022-08-23T22:14:53.213Z,11.07
2022-08-23T22:17:21.753Z,10.52
2022-08-23T22:19:50.039Z,10.68
2022-08-23T22:22:18.821Z,10.20
2022-08-23T22:24:47.323Z,9.80
2022-08-23T22:27:17.132Z,10.60
2022-08-23T22:29:46.586Z,10.07
2022-08-23T22:32:15.783Z,10.43
2022-08-23T22:34:43.925Z,9.18
2022-08-23T22:37:12.329Z,10.10
2022-08-23T22:39:40.850Z,10.20
2022-08-23T22:42:09.896Z,10.57
2022-08-23T22:44:40.442Z,10.75
2022-08-23T22:47:08.634Z,10.38
2022-08-23T22:49:36.728Z,10.30
2022-08-23T22:52:06.029Z,10.38
2022-08-23T22:54:34.459Z,10.65
2022-08-23T22:57:02.677Z,10.27
2022-08-23T22:59:32.980Z,10.27
2022-08-23T23:02:04.316Z,9.65
2022-08-23T23:04:34.005Z,10.25
2022-08-23T23:07:03.057Z,10.20
2022-08-23T23:09:31.245Z,9.90
2022-08-23T23:11:59.570Z,9.68
2022-08-23T23:14:27.816Z,9.43
2022-08-23T23:16:56.223Z,9.60
2022-08-23T23:19:43.193Z,9.98
2022-08-23T23:22:14.472Z,10.05
2022-08-23T23:24:42.764Z,10.48
2022-08-23T23:27:10.912Z,10.13
2022-08-23T23:29:39.142Z,10.38
2022-08-23T23:32:07.852Z,10.38
2022-08-23T23:34:38.289Z,10.48
2022-08-23T23:37:06.491Z,11.35
2022-08-23T23:39:34.913Z,11.45
2022-08-23T23:42:03.333Z,11.63
2022-08-23T23:44:32.149Z,11.63
2022-08-23T23:47:01.760Z,11.02
2022-08-23T23:49:32.515Z,11.07
2022-08-23T23:52:04.295Z,11.40
2022-08-23T23:54:36.750Z,10.77
2022-08-23T23:57:05.096Z,11.63
2022-08-23T23:59:34.940Z,10.52
